createdAt,value
2019-06-26T00:00:16.163Z,25.42
2019-06-26T00:02:45.735Z,25.41
2019-06-26T00:05:15.271Z,25.40
2019-06-26T00:07:44.828Z,25.40
2019-06-26T00:10:14.917Z,25.40
2019-06-26T00:12:44.847Z,25.41
2019-06-26T00:15:15.828Z,25.39
2019-06-26T00:17:45.411Z,25.39
2019-06-26T00:20:15.466Z,25.39
2019-06-26T00:22:45.032Z,25.37
2019-06-26T00:25:14.642Z,25.38
2019-06-26T00:27:44.191Z,25.35
2019-06-26T00:30:14.288Z,25.37
2019-06-26T00:32:43.836Z,25.36
2019-06-26T00:35:13.473Z,25.36
2019-06-26T00:37:43.027Z,25.36
2019-06-26T00:40:13.008Z,25.35
2019-06-26T00:42:42.555Z,25.35
2019-06-26T00:45:12.263Z,25.36
2019-06-26T00:47:41.815Z,25.36
2019-06-26T00:50:11.818Z,25.35
2019-06-26T00:52:41.457Z,25.34
2019-06-26T00:55:11.073Z,25.33
2019-06-26T00:57:40.623Z,25.33
2019-06-26T01:00:11.415Z,25.33
2019-06-26T01:02:40.953Z,25.34
2019-06-26T01:05:11.922Z,25.32
2019-06-26T01:07:41.529Z,25.32
2019-06-26T01:10:12.624Z,25.31
2019-06-26T01:12:42.176Z,25.32
2019-06-26T01:15:13.235Z,25.32
2019-06-26T01:17:43.047Z,25.33
2019-06-26T01:20:12.918Z,25.32
2019-06-26T01:22:42.763Z,25.31
2019-06-26T01:25:13.225Z,25.30
2019-06-26T01:27:42.128Z,25.32
2019-06-26T01:30:11.856Z,25.31
2019-06-26T01:32:41.413Z,25.32
2019-06-26T01:35:11.997Z,25.30
2019-06-26T01:37:41.551Z,25.29
2019-06-26T01:40:11.392Z,25.29
2019-06-26T01:42:40.956Z,25.30
2019-06-26T01:45:10.865Z,25.29
2019-06-26T01:47:40.396Z,25.29
2019-06-26T01:50:09.970Z,25.29
2019-06-26T01:52:39.503Z,25.29
2019-06-26T01:55:09.314Z,25.27
2019-06-26T01:57:38.850Z,25.28
2019-06-26T02:00:10.196Z,25.28
2019-06-26T02:02:39.776Z,25.28
2019-06-26T02:05:09.753Z,25.27
2019-06-26T02:07:39.305Z,25.28
2019-06-26T02:10:09.107Z,25.27
2019-06-26T02:12:38.667Z,25.29
2019-06-26T02:15:08.559Z,25.28
2019-06-26T02:17:38.127Z,25.28
2019-06-26T02:20:08.437Z,25.28
2019-06-26T02:22:37.999Z,25.27
2019-06-26T02:25:07.642Z,25.28
2019-06-26T02:27:37.193Z,25.32
2019-06-26T02:30:09.546Z,25.33
2019-06-26T02:32:39.183Z,25.36
2019-06-26T02:35:10.339Z,25.37
2019-06-26T02:37:40.244Z,25.42
2019-06-26T02:40:10.712Z,25.40
2019-06-26T02:42:39.629Z,25.44
2019-06-26T02:45:09.231Z,25.42
2019-06-26T02:47:38.820Z,25.42
2019-06-26T02:50:10.289Z,25.41
2019-06-26T02:52:39.840Z,25.41
2019-06-26T02:55:09.982Z,25.42
2019-06-26T02:57:39.579Z,25.42
2019-06-26T03:00:09.505Z,25.43
2019-06-26T03:02:39.068Z,25.42
2019-06-26T03:05:08.677Z,25.45
2019-06-26T03:07:38.236Z,25.44
2019-06-26T03:10:09.018Z,25.43
2019-06-26T03:12:38.584Z,25.42
2019-06-26T03:15:09.884Z,25.42
2019-06-26T03:17:54.195Z,25.42
2019-06-26T03:20:11.876Z,25.41
2019-06-26T03:22:41.427Z,25.42
2019-06-26T03:25:11.058Z,25.43
2019-06-26T03:27:40.639Z,25.42
2019-06-26T03:30:10.507Z,25.42
2019-06-26T03:32:40.069Z,25.43
2019-06-26T03:35:09.664Z,25.42
2019-06-26T03:37:39.213Z,25.41
2019-06-26T03:40:10.400Z,25.41
2019-06-26T03:42:39.946Z,25.42
2019-06-26T03:45:24.551Z,25.43
2019-06-26T03:47:40.936Z,25.41
2019-06-26T03:50:11.818Z,25.42
2019-06-26T03:52:41.360Z,25.43
2019-06-26T03:55:11.269Z,25.38
2019-06-26T03:57:40.829Z,25.41
2019-06-26T04:00:11.179Z,25.39
2019-06-26T04:02:39.981Z,25.40
2019-06-26T04:05:09.443Z,25.40
2019-06-26T04:07:39.000Z,25.41
2019-06-26T04:10:08.778Z,25.39
2019-06-26T04:12:38.657Z,25.40
2019-06-26T04:15:08.758Z,25.39
2019-06-26T04:17:38.672Z,25.39
2019-06-26T04:20:09.230Z,25.37
2019-06-26T04:22:38.800Z,25.39
2019-06-26T04:25:08.890Z,25.39
2019-06-26T04:27:38.436Z,25.38
2019-06-26T04:30:10.417Z,25.36
2019-06-26T04:32:39.968Z,25.36
2019-06-26T04:35:09.751Z,25.33
2019-06-26T04:37:39.315Z,25.33
2019-06-26T04:40:09.649Z,25.31
2019-06-26T04:42:39.207Z,25.31
2019-06-26T04:45:10.106Z,25.32
2019-06-26T04:47:39.659Z,25.31
2019-06-26T04:50:10.668Z,25.34
2019-06-26T04:52:40.220Z,25.31
2019-06-26T04:55:09.927Z,25.32
2019-06-26T04:57:39.475Z,25.32
2019-06-26T05:00:09.719Z,25.31
2019-06-26T05:02:39.278Z,25.31
2019-06-26T05:05:09.205Z,25.30
2019-06-26T05:07:38.762Z,25.29
2019-06-26T05:10:08.958Z,25.30
2019-06-26T05:12:38.515Z,25.28
2019-06-26T05:15:09.062Z,25.28
2019-06-26T05:17:38.715Z,25.28
2019-06-26T05:20:08.795Z,25.25
2019-06-26T05:22:38.340Z,25.28
2019-06-26T05:25:08.349Z,25.29
2019-06-26T05:27:37.898Z,25.31
2019-06-26T05:30:11.893Z,25.32
2019-06-26T05:32:41.504Z,25.33
2019-06-26T05:35:11.605Z,25.31
2019-06-26T05:37:41.303Z,25.34
2019-06-26T05:40:14.306Z,25.34
2019-06-26T05:42:43.940Z,25.35
2019-06-26T05:45:15.320Z,25.34
2019-06-26T05:47:45.235Z,25.34
2019-06-26T05:50:15.568Z,25.34
2019-06-26T05:52:45.218Z,25.35
2019-06-26T05:55:15.233Z,25.35
2019-06-26T05:57:48.341Z,25.34
2019-06-26T06:00:19.325Z,25.36
2019-06-26T06:02:48.886Z,25.37
2019-06-26T06:05:18.715Z,25.38
2019-06-26T06:07:48.296Z,25.38
2019-06-26T06:10:17.976Z,25.37
2019-06-26T06:12:47.541Z,25.36
2019-06-26T06:15:20.263Z,25.35
2019-06-26T06:17:49.814Z,25.35
2019-06-26T06:20:22.460Z,25.37
2019-06-26T06:22:52.073Z,25.37
2019-06-26T06:25:21.598Z,25.38
2019-06-26T06:27:52.680Z,25.37
2019-06-26T06:30:22.473Z,25.37
2019-06-26T06:32:53.670Z,25.37
2019-06-26T06:35:23.244Z,25.38
2019-06-26T06:37:52.787Z,25.38
2019-06-26T06:40:22.709Z,25.36
2019-06-26T06:42:52.520Z,25.38
2019-06-26T06:45:23.417Z,25.38
2019-06-26T06:47:52.978Z,25.38
2019-06-26T06:50:22.664Z,25.38
2019-06-26T06:58:21.015Z,25.39
2019-06-26T07:00:50.567Z,25.40
2019-06-26T07:03:22.665Z,25.40
2019-06-26T07:05:54.993Z,25.40
2019-06-26T07:08:24.546Z,25.39
2019-06-26T07:10:54.121Z,25.39
2019-06-26T07:13:23.672Z,25.39
2019-06-26T07:15:53.214Z,25.40
2019-06-26T07:18:22.839Z,25.40
2019-06-26T07:20:52.685Z,25.40
2019-06-26T07:23:25.465Z,25.40
2019-06-26T07:25:55.055Z,25.39
2019-06-26T07:28:24.630Z,25.39
2019-06-26T07:30:54.177Z,25.40
2019-06-26T07:33:23.727Z,25.40
2019-06-26T07:35:53.538Z,25.43
2019-06-26T07:38:23.098Z,25.41
2019-06-26T07:40:55.122Z,25.41
2019-06-26T07:43:24.719Z,25.42
2019-06-26T07:45:54.294Z,25.42
2019-06-26T07:48:23.881Z,25.42
2019-06-26T07:50:53.458Z,25.42
2019-06-26T07:53:24.643Z,25.43
2019-06-26T07:55:54.208Z,25.43
2019-06-26T07:58:23.768Z,25.44
2019-06-26T08:00:53.411Z,25.44
2019-06-26T08:03:26.097Z,25.43
2019-06-26T08:05:55.712Z,25.43
2019-06-26T08:08:21.579Z,25.43
2019-06-26T08:10:47.522Z,25.43
2019-06-26T08:13:13.407Z,25.44
2019-06-26T08:15:39.675Z,25.43
2019-06-26T08:18:05.576Z,25.45
2019-06-26T08:20:32.047Z,25.45
2019-06-26T08:22:58.125Z,25.45
2019-06-26T08:25:24.005Z,25.46
2019-06-26T08:27:49.958Z,25.46
2019-06-26T08:30:17.872Z,25.47
2019-06-26T08:32:43.757Z,25.46
2019-06-26T08:35:09.896Z,25.47
2019-06-26T08:37:35.739Z,25.46
2019-06-26T08:40:03.555Z,25.46
2019-06-26T08:42:29.448Z,25.46
2019-06-26T08:44:58.351Z,25.47
2019-06-26T08:47:24.262Z,25.45
2019-06-26T08:49:50.172Z,25.46
2019-06-26T08:52:16.271Z,25.45
2019-06-26T08:54:42.129Z,25.47
2019-06-26T08:57:08.031Z,25.46
2019-06-26T08:59:33.898Z,25.45
2019-06-26T09:01:59.807Z,25.47
2019-06-26T09:04:25.740Z,25.46
2019-06-26T09:06:51.599Z,25.45
2019-06-26T09:09:19.446Z,25.47
2019-06-26T09:11:45.324Z,25.45
2019-06-26T09:14:11.192Z,25.46
2019-06-26T09:16:37.110Z,25.45
2019-06-26T09:19:03.117Z,25.47
2019-06-26T09:21:31.381Z,25.46
2019-06-26T09:23:56.755Z,25.46
2019-06-26T09:26:24.550Z,25.47
2019-06-26T09:28:50.455Z,25.47
2019-06-26T09:31:16.364Z,25.48
2019-06-26T09:33:42.294Z,25.47
2019-06-26T09:36:08.129Z,25.47
2019-06-26T09:38:34.022Z,25.48
2019-06-26T09:40:59.944Z,25.47
2019-06-26T09:43:25.813Z,25.48
2019-06-26T09:45:52.118Z,25.48
2019-06-26T09:48:18.010Z,25.48
2019-06-26T09:50:43.893Z,25.48
2019-06-26T09:53:09.836Z,25.48
2019-06-26T09:55:35.706Z,25.48
2019-06-26T09:58:01.598Z,25.49
2019-06-26T10:00:27.955Z,25.48
2019-06-26T10:02:53.935Z,25.49
2019-06-26T10:05:19.995Z,25.50
2019-06-26T10:07:46.159Z,25.49
2019-06-26T10:10:12.541Z,25.49
2019-06-26T10:12:38.413Z,25.50
2019-06-26T10:15:05.481Z,25.50
2019-06-26T10:17:31.361Z,25.50
2019-06-26T10:19:57.285Z,25.51
2019-06-26T10:22:23.182Z,25.51
2019-06-26T10:24:49.071Z,25.51
2019-06-26T10:27:14.971Z,25.51
2019-06-26T10:29:45.415Z,25.52
2019-06-26T10:32:11.311Z,25.52
2019-06-26T10:34:40.986Z,25.52
2019-06-26T10:37:08.941Z,25.53
2019-06-26T10:39:34.805Z,25.53
2019-06-26T10:42:00.767Z,25.53
2019-06-26T10:44:26.628Z,25.54
2019-06-26T10:46:52.503Z,25.54
2019-06-26T10:49:26.919Z,25.55
2019-06-26T10:51:46.190Z,25.54
2019-06-26T10:54:12.074Z,25.55
2019-06-26T10:56:40.728Z,25.55
2019-06-26T10:59:06.622Z,25.56
2019-06-26T11:01:32.785Z,25.56
2019-06-26T11:03:58.700Z,25.57
2019-06-26T11:06:24.563Z,25.56
2019-06-26T11:08:50.466Z,25.56
2019-06-26T11:11:16.500Z,25.56
2019-06-26T11:13:42.366Z,25.57
2019-06-26T11:16:08.278Z,25.57
2019-06-26T11:18:34.155Z,25.58
2019-06-26T11:21:00.189Z,25.56
2019-06-26T11:23:27.491Z,25.58
2019-06-26T11:25:53.342Z,25.58
2019-06-26T11:28:19.477Z,25.58
2019-06-26T11:30:45.391Z,25.59
2019-06-26T11:33:11.304Z,25.59
2019-06-26T11:35:40.204Z,25.60
2019-06-26T11:38:06.100Z,25.61
2019-06-26T11:40:32.520Z,25.61
2019-06-26T11:42:58.392Z,25.59
2019-06-26T11:45:24.256Z,25.59
2019-06-26T11:47:50.301Z,25.61
2019-06-26T11:50:19.531Z,25.63
2019-06-26T11:52:45.418Z,25.62
2019-06-26T11:55:12.001Z,25.62
2019-06-26T11:57:37.908Z,25.62
2019-06-26T12:00:06.412Z,25.62
2019-06-26T12:02:32.307Z,25.63
2019-06-26T12:04:58.184Z,25.63
2019-06-26T12:07:24.075Z,25.63
2019-06-26T12:09:49.978Z,25.64
2019-06-26T12:12:15.862Z,25.58
2019-06-26T12:14:41.759Z,25.63
2019-06-26T12:17:07.636Z,25.64
2019-06-26T12:19:33.555Z,25.64
2019-06-26T12:21:59.556Z,25.63
2019-06-26T12:24:26.600Z,25.64
2019-06-26T12:26:56.542Z,25.63
2019-06-26T12:29:22.537Z,25.64
2019-06-26T12:31:51.223Z,25.64
2019-06-26T12:34:17.067Z,25.64
2019-06-26T12:36:42.961Z,25.65
2019-06-26T12:39:08.937Z,25.66
2019-06-26T12:41:35.088Z,25.65
2019-06-26T12:44:00.985Z,25.66
2019-06-26T12:46:26.885Z,25.66
2019-06-26T12:48:52.821Z,25.66
2019-06-26T12:51:18.749Z,25.66
2019-06-26T12:53:45.792Z,25.65
2019-06-26T12:56:11.711Z,25.66
2019-06-26T12:58:37.588Z,25.65
2019-06-26T13:01:05.429Z,25.61
2019-06-26T13:03:33.175Z,25.66
2019-06-26T13:06:04.448Z,25.67
2019-06-26T13:08:32.357Z,25.68
2019-06-26T13:11:00.151Z,25.68
2019-06-26T13:13:26.005Z,25.70
2019-06-26T13:15:57.418Z,25.69
2019-06-26T13:18:25.246Z,25.69
2019-06-26T13:20:53.299Z,25.70
2019-06-26T13:23:18.928Z,25.70
2019-06-26T13:25:44.796Z,25.70
2019-06-26T13:28:10.686Z,25.70
2019-06-26T13:30:37.397Z,25.70
2019-06-26T13:33:03.371Z,25.71
2019-06-26T13:35:29.317Z,25.72
2019-06-26T13:37:55.209Z,25.71
2019-06-26T13:40:21.106Z,25.71
2019-06-26T13:42:47.186Z,25.71
2019-06-26T13:45:14.056Z,25.72
2019-06-26T13:47:39.943Z,25.72
2019-06-26T13:50:06.569Z,25.72
2019-06-26T13:52:33.626Z,25.73
2019-06-26T13:54:59.524Z,25.74
2019-06-26T13:57:25.658Z,25.69
2019-06-26T13:59:51.567Z,25.69
2019-06-26T14:02:19.870Z,25.74
2019-06-26T14:04:45.500Z,25.73
2019-06-26T14:07:11.425Z,25.74
2019-06-26T14:09:37.355Z,25.74
2019-06-26T14:12:03.367Z,25.72
2019-06-26T14:14:41.006Z,25.74
2019-06-26T14:17:01.980Z,25.74
2019-06-26T14:19:27.828Z,25.74
2019-06-26T14:21:53.777Z,25.72
2019-06-26T14:24:19.842Z,25.74
2019-06-26T14:26:45.732Z,25.73
2019-06-26T14:29:20.935Z,25.74
2019-06-26T14:31:42.117Z,25.73
2019-06-26T14:34:08.459Z,25.74
2019-06-26T14:36:34.383Z,25.75
2019-06-26T14:39:02.153Z,25.74
2019-06-26T14:41:28.082Z,25.75
2019-06-26T14:43:53.983Z,25.74
2019-06-26T14:46:19.983Z,25.75
2019-06-26T14:48:45.934Z,25.74
2019-06-26T14:51:13.847Z,25.74
2019-06-26T14:53:39.709Z,25.76
2019-06-26T14:56:05.648Z,25.74
2019-06-26T14:58:31.532Z,25.74
2019-06-26T15:00:57.516Z,25.74
2019-06-26T15:03:23.417Z,25.74
2019-06-26T15:05:49.289Z,25.74
2019-06-26T15:08:17.331Z,25.72
2019-06-26T15:10:47.780Z,25.72
2019-06-26T15:13:13.594Z,25.73
2019-06-26T15:15:39.451Z,25.72
2019-06-26T15:18:05.362Z,25.66
2019-06-26T15:20:31.457Z,25.66
2019-06-26T15:22:58.833Z,25.70
2019-06-26T15:25:24.819Z,25.70
2019-06-26T15:27:50.730Z,25.72
2019-06-26T15:30:17.040Z,25.69
2019-06-26T15:32:43.001Z,25.70
2019-06-26T15:35:10.607Z,25.70
2019-06-26T15:37:45.272Z,25.70
2019-06-26T15:40:19.810Z,25.70
2019-06-26T15:42:49.069Z,25.69
2019-06-26T15:45:15.433Z,25.68
2019-06-26T15:47:41.498Z,25.70
2019-06-26T15:50:11.033Z,25.70
2019-06-26T15:52:37.007Z,25.68
2019-06-26T15:55:06.688Z,25.69
2019-06-26T15:57:32.670Z,25.68
2019-06-26T15:59:58.577Z,25.69
2019-06-26T16:02:24.465Z,25.68
2019-06-26T16:04:50.343Z,25.69
2019-06-26T16:07:16.524Z,25.69
2019-06-26T16:09:42.447Z,25.69
2019-06-26T16:12:08.316Z,25.68
2019-06-26T16:14:34.227Z,25.67
2019-06-26T16:17:02.033Z,25.68
2019-06-26T16:19:29.843Z,25.67
2019-06-26T16:22:01.064Z,25.67
2019-06-26T16:24:30.207Z,25.69
2019-06-26T16:26:56.495Z,25.68
2019-06-26T16:29:24.926Z,25.68
2019-06-26T16:31:53.762Z,25.67
2019-06-26T16:34:19.850Z,25.67
2019-06-26T16:36:45.729Z,25.67
2019-06-26T16:39:11.649Z,25.66
2019-06-26T16:41:39.412Z,25.61
2019-06-26T16:44:05.915Z,25.65
2019-06-26T16:46:31.806Z,25.66
2019-06-26T16:48:57.700Z,25.66
2019-06-26T16:51:23.776Z,25.65
2019-06-26T16:53:49.918Z,25.65
2019-06-26T16:56:15.906Z,25.65
2019-06-26T16:58:41.807Z,25.64
2019-06-26T17:01:07.706Z,25.65
2019-06-26T17:03:33.570Z,25.64
2019-06-26T17:05:59.477Z,25.63
2019-06-26T17:08:25.346Z,25.64
2019-06-26T17:10:51.418Z,25.64
2019-06-26T17:13:19.201Z,25.64
2019-06-26T17:15:45.088Z,25.63
2019-06-26T17:18:10.969Z,25.64
2019-06-26T17:20:36.946Z,25.63
2019-06-26T17:23:06.293Z,25.62
2019-06-26T17:25:30.859Z,25.66
2019-06-26T17:27:59.938Z,25.69
2019-06-26T17:30:26.229Z,25.73
2019-06-26T17:32:58.801Z,25.78
2019-06-26T17:35:24.953Z,25.83
2019-06-26T17:37:58.124Z,25.92
2019-06-26T17:40:27.994Z,25.96
2019-06-26T17:43:11.861Z,26.02
2019-06-26T17:45:44.169Z,26.11
2019-06-26T17:48:09.407Z,26.16
2019-06-26T17:50:35.335Z,26.18
2019-06-26T17:53:01.252Z,26.33
2019-06-26T17:55:27.172Z,26.36
2019-06-26T17:57:53.085Z,26.43
2019-06-26T18:00:25.603Z,26.39
2019-06-26T18:02:51.580Z,26.42
2019-06-26T18:05:20.266Z,26.41
2019-06-26T18:07:46.161Z,26.41
2019-06-26T18:10:12.174Z,26.42
2019-06-26T18:12:38.063Z,26.39
2019-06-26T18:15:07.026Z,26.39
2019-06-26T18:20:16.742Z,26.39
2019-06-26T18:22:47.972Z,26.34
2019-06-26T18:25:18.253Z,26.35
2019-06-26T18:27:47.802Z,26.36
2019-06-26T18:30:22.466Z,26.36
2019-06-26T18:32:50.362Z,26.36
2019-06-26T18:35:19.902Z,26.33
2019-06-26T18:37:49.453Z,26.31
2019-06-26T18:40:19.087Z,26.31
2019-06-26T18:42:48.648Z,26.27
2019-06-26T18:45:18.812Z,26.27
2019-06-26T18:47:48.336Z,26.22
2019-06-26T18:50:18.029Z,26.21
2019-06-26T18:52:47.584Z,26.19
2019-06-26T18:55:17.153Z,26.19
2019-06-26T18:57:46.731Z,26.16
2019-06-26T19:00:16.569Z,26.14
2019-06-26T19:02:46.251Z,26.14
2019-06-26T19:05:15.975Z,26.13
2019-06-26T19:07:45.523Z,26.15
2019-06-26T19:10:15.273Z,26.10
2019-06-26T19:12:49.550Z,26.12
2019-06-26T19:15:29.733Z,26.19
2019-06-26T19:18:01.061Z,26.15
2019-06-26T19:20:45.697Z,26.15
2019-06-26T19:23:18.012Z,26.19
2019-06-26T19:25:47.682Z,26.27
2019-06-26T19:28:17.180Z,26.34
2019-06-26T19:30:46.757Z,26.45
2019-06-26T19:33:19.388Z,26.45
2019-06-26T19:35:50.567Z,26.49
2019-06-26T19:38:25.497Z,26.56
2019-06-26T19:40:55.049Z,26.62
2019-06-26T19:43:24.620Z,26.67
2019-06-26T19:45:54.209Z,26.69
2019-06-26T19:48:23.839Z,26.73
2019-06-26T19:50:53.539Z,26.75
2019-06-26T19:53:23.219Z,26.80
2019-06-26T19:55:52.769Z,26.82
2019-06-26T19:58:22.454Z,26.81
2019-06-26T20:00:54.835Z,26.92
2019-06-26T20:03:24.782Z,26.97
2019-06-26T20:05:54.628Z,26.96
2019-06-26T20:08:27.201Z,27.02
2019-06-26T20:10:58.461Z,26.99
2019-06-26T20:13:30.523Z,27.04
2019-06-26T20:16:00.090Z,27.04
2019-06-26T20:18:29.721Z,27.06
2019-06-26T20:20:59.271Z,27.08
2019-06-26T20:23:30.434Z,27.11
2019-06-26T20:26:07.089Z,27.10
2019-06-26T20:28:36.584Z,27.14
2019-06-26T20:31:06.125Z,27.14
2019-06-26T20:33:35.814Z,27.13
2019-06-26T20:36:07.304Z,27.15
2019-06-26T20:38:36.859Z,27.18
2019-06-26T20:41:06.644Z,27.19
2019-06-26T20:43:36.183Z,27.18
2019-06-26T20:46:05.757Z,27.23
2019-06-26T20:48:35.347Z,27.21
2019-06-26T20:51:05.014Z,27.18
2019-06-26T20:53:34.666Z,27.31
2019-06-26T20:56:06.600Z,27.20
2019-06-26T20:58:36.177Z,27.10
2019-06-26T21:01:05.727Z,27.03
2019-06-26T21:03:35.287Z,26.96
2019-06-26T21:06:04.922Z,26.91
2019-06-26T21:08:34.499Z,26.86
2019-06-26T21:11:06.206Z,26.78
2019-06-26T21:13:38.251Z,26.72
2019-06-26T21:16:11.744Z,26.69
2019-06-26T21:18:41.381Z,26.65
2019-06-26T21:21:10.946Z,26.59
2019-06-26T21:23:41.439Z,26.53
2019-06-26T21:26:13.797Z,26.50
2019-06-26T21:28:43.348Z,26.46
2019-06-26T21:31:14.638Z,26.44
2019-06-26T21:33:47.257Z,26.39
2019-06-26T21:36:16.832Z,26.35
2019-06-26T21:38:48.288Z,26.30
2019-06-26T21:41:19.503Z,26.30
2019-06-26T21:43:51.991Z,26.27
2019-06-26T21:46:25.926Z,26.26
2019-06-26T21:48:58.252Z,26.20
2019-06-26T21:51:29.564Z,26.20
2019-06-26T21:54:02.045Z,26.18
2019-06-26T21:56:31.602Z,26.16
2019-06-26T21:59:03.789Z,26.13
2019-06-26T22:01:35.579Z,26.14
2019-06-26T22:04:07.811Z,26.12
2019-06-26T22:06:37.451Z,26.08
2019-06-26T22:09:08.231Z,26.08
2019-06-26T22:11:37.775Z,26.07
2019-06-26T22:14:12.963Z,26.04
2019-06-26T22:16:42.516Z,26.03
2019-06-26T22:19:12.094Z,26.02
2019-06-26T22:21:41.654Z,26.00
2019-06-26T22:24:11.389Z,25.99
2019-06-26T22:26:42.714Z,25.97
2019-06-26T22:29:14.991Z,25.98
2019-06-26T22:31:45.947Z,25.95
2019-06-26T22:34:15.411Z,25.93
2019-06-26T22:36:51.776Z,25.94
2019-06-26T22:39:16.237Z,25.91
2019-06-26T22:41:45.782Z,25.90
2019-06-26T22:44:15.386Z,25.89
2019-06-26T22:46:46.848Z,25.88
2019-06-26T22:49:16.424Z,25.88
2019-06-26T22:51:45.994Z,25.86
2019-06-26T22:54:15.568Z,25.85
2019-06-26T22:56:45.132Z,25.85
2019-06-26T22:59:14.704Z,25.83
2019-06-26T23:01:44.338Z,25.83
2019-06-26T23:04:13.864Z,25.82
2019-06-26T23:06:43.462Z,25.81
2019-06-26T23:09:13.016Z,25.80
2019-06-26T23:11:42.593Z,25.81
2019-06-26T23:14:12.204Z,25.79
2019-06-26T23:16:41.780Z,25.79
2019-06-26T23:19:14.841Z,25.77
2019-06-26T23:21:42.650Z,25.75
2019-06-26T23:24:12.213Z,25.76
2019-06-26T23:26:44.705Z,25.75
2019-06-26T23:29:14.360Z,25.75
2019-06-26T23:31:45.556Z,25.73
2019-06-26T23:34:15.103Z,25.73
2019-06-26T23:36:44.704Z,25.71
2019-06-26T23:39:14.246Z,25.71
2019-06-26T23:41:43.820Z,25.70
2019-06-26T23:44:13.450Z,25.71
2019-06-26T23:46:43.101Z,25.68
2019-06-26T23:49:12.663Z,25.69
2019-06-26T23:51:43.924Z,25.68
2019-06-26T23:54:13.507Z,25.71
2019-06-26T23:56:44.598Z,25.68
2019-06-26T23:59:14.161Z,25.67
